createdAt,value
2019-06-07T00:02:22.379Z,81.59
2019-06-07T00:04:52.461Z,81.43
2019-06-07T00:07:22.535Z,81.91
2019-06-07T00:09:52.620Z,82.22
2019-06-07T00:12:22.737Z,82.16
2019-06-07T00:14:52.827Z,82.21
2019-06-07T00:17:22.901Z,82.47
2019-06-07T00:19:52.997Z,82.50
2019-06-07T00:22:32.388Z,83.07
2019-06-07T00:24:54.907Z,82.42
2019-06-07T00:27:25.006Z,83.23
2019-06-07T00:29:55.057Z,83.29
2019-06-07T00:32:25.156Z,83.68
2019-06-07T00:34:55.229Z,83.77
2019-06-07T00:37:25.663Z,83.75
2019-06-07T00:40:13.498Z,83.76
2019-06-07T00:42:27.962Z,83.38
2019-06-07T00:44:58.062Z,83.85
2019-06-07T00:47:28.155Z,83.82
2019-06-07T00:49:58.252Z,83.66
2019-06-07T00:55:00.152Z,84.32
2019-06-07T00:57:30.230Z,83.97
2019-06-07T01:00:00.324Z,83.82
2019-06-07T01:02:31.631Z,83.05
2019-06-07T01:05:01.984Z,83.32
2019-06-07T01:07:32.082Z,84.32
2019-06-07T01:10:02.180Z,84.94
2019-06-07T01:12:32.227Z,85.21
2019-06-07T01:15:02.314Z,85.46
2019-06-07T01:17:41.202Z,85.14
2019-06-07T01:20:04.711Z,85.40
2019-06-07T01:22:34.779Z,84.77
2019-06-07T01:25:05.157Z,84.67
2019-06-07T01:27:35.219Z,84.02
2019-06-07T01:30:07.137Z,83.75
2019-06-07T01:32:37.214Z,83.47
2019-06-07T01:35:08.128Z,83.31
2019-06-07T01:37:38.245Z,83.26
2019-06-07T01:40:08.803Z,82.85
2019-06-07T01:42:38.877Z,83.06
2019-06-07T01:45:09.996Z,82.86
2019-06-07T01:47:40.087Z,83.39
2019-06-07T01:50:11.971Z,83.36
2019-06-07T01:52:42.023Z,83.23
2019-06-07T01:55:12.357Z,83.03
2019-06-07T01:57:48.116Z,84.09
2019-06-07T02:00:14.734Z,84.07
2019-06-07T02:02:44.802Z,83.82
2019-06-07T02:05:15.079Z,83.47
2019-06-07T02:07:45.143Z,82.99
2019-06-07T02:10:15.747Z,82.70
2019-06-07T02:12:45.797Z,82.49
2019-06-07T02:15:16.207Z,83.60
2019-06-07T02:17:46.417Z,83.02
2019-06-07T02:20:16.912Z,82.66
2019-06-07T02:22:47.009Z,83.16
2019-06-07T02:27:50.271Z,82.69
2019-06-07T02:30:44.100Z,82.56
2019-06-07T02:32:52.225Z,82.81
2019-06-07T02:35:26.063Z,82.79
2019-06-07T02:37:54.174Z,82.47
2019-06-07T02:40:28.069Z,82.20
2019-06-07T02:42:56.539Z,82.29
2019-06-07T02:45:29.886Z,82.20
2019-06-07T02:47:58.435Z,81.96
2019-06-07T02:50:35.402Z,81.59
2019-06-07T02:53:00.309Z,82.62
2019-06-07T02:55:36.573Z,82.47
2019-06-07T02:58:02.219Z,82.53
2019-06-07T03:01:00.533Z,83.19
2019-06-07T03:03:15.869Z,83.71
2019-06-07T03:05:46.956Z,85.31
2019-06-07T03:08:18.154Z,84.72
2019-06-07T03:10:50.075Z,84.73
2019-06-07T03:13:21.663Z,84.65
2019-06-07T03:15:54.146Z,84.19
2019-06-07T03:18:42.185Z,83.74
2019-06-07T03:21:16.611Z,84.44
2019-06-07T03:23:47.033Z,85.08
2019-06-07T03:26:17.931Z,85.42
2019-06-07T03:28:48.351Z,85.62
2019-06-07T03:31:18.644Z,85.40
2019-06-07T03:33:48.745Z,85.84
2019-06-07T03:36:25.451Z,85.80
2019-06-07T03:38:50.719Z,86.12
2019-06-07T03:41:20.834Z,86.76
2019-06-07T03:43:50.917Z,87.01
2019-06-07T03:46:21.029Z,86.90
2019-06-07T03:48:51.097Z,87.65
2019-06-07T03:51:25.328Z,88.20
2019-06-07T03:53:53.038Z,88.55
2019-06-07T03:56:23.112Z,88.83
2019-06-07T03:58:53.199Z,88.78
2019-06-07T04:01:23.644Z,88.93
2019-06-07T04:03:53.728Z,89.34
2019-06-07T04:06:23.874Z,89.20
2019-06-07T04:08:53.952Z,89.47
2019-06-07T04:11:24.121Z,89.49
2019-06-07T04:13:54.231Z,89.29
2019-06-07T04:16:24.332Z,87.87
2019-06-07T04:18:54.469Z,86.21
2019-06-07T04:21:24.578Z,86.44
2019-06-07T04:23:54.685Z,87.46
2019-06-07T04:26:24.786Z,87.69
2019-06-07T04:29:31.559Z,88.49
2019-06-07T04:31:26.686Z,88.88
2019-06-07T04:33:56.773Z,88.68
2019-06-07T04:36:42.777Z,88.87
2019-06-07T04:39:01.246Z,88.23
2019-06-07T04:41:33.435Z,88.22
2019-06-07T04:44:03.557Z,88.32
2019-06-07T04:46:35.207Z,86.24
2019-06-07T04:49:06.271Z,84.91
2019-06-07T04:51:42.093Z,85.22
2019-06-07T04:54:09.671Z,85.34
2019-06-07T04:56:43.724Z,85.52
2019-06-07T04:59:12.035Z,85.37
2019-06-07T05:01:42.842Z,84.29
2019-06-07T05:04:13.104Z,83.71
2019-06-07T05:06:43.279Z,76.63
2019-06-07T05:09:13.982Z,65.49
2019-06-07T05:11:45.055Z,58.88
2019-06-07T05:14:15.409Z,55.91
2019-06-07T05:16:45.894Z,55.33
2019-06-07T05:19:16.045Z,52.88
2019-06-07T05:22:02.533Z,52.44
2019-06-07T05:24:18.417Z,50.93
2019-06-07T05:26:49.124Z,49.53
2019-06-07T05:29:20.847Z,49.38
2019-06-07T05:31:50.947Z,47.51
2019-06-07T05:34:21.134Z,45.84
2019-06-07T05:37:10.684Z,44.95
2019-06-07T05:39:23.076Z,46.06
2019-06-07T05:41:53.149Z,44.74
2019-06-07T05:44:23.227Z,44.41
2019-06-07T05:46:53.329Z,45.33
2019-06-07T05:49:23.515Z,43.61
2019-06-07T05:51:53.643Z,44.22
2019-06-07T05:54:23.711Z,43.46
2019-06-07T05:56:53.783Z,43.25
2019-06-07T05:59:23.909Z,43.37
2019-06-07T06:02:02.610Z,42.55
2019-06-07T06:04:25.841Z,42.05
2019-06-07T06:06:55.910Z,43.02
2019-06-07T06:09:26.016Z,43.15
2019-06-07T06:12:02.010Z,42.55
2019-06-07T06:14:28.073Z,41.38
2019-06-07T06:16:58.238Z,42.27
2019-06-07T06:19:28.352Z,41.73
2019-06-07T06:21:58.507Z,43.37
2019-06-07T06:24:28.609Z,42.60
2019-06-07T06:27:15.326Z,42.84
2019-06-07T06:29:32.176Z,44.01
2019-06-07T06:32:40.710Z,42.89
2019-06-07T06:34:34.081Z,42.42
2019-06-07T06:37:04.215Z,43.68
2019-06-07T06:39:34.515Z,43.65
2019-06-07T06:42:04.785Z,43.83
2019-06-07T06:44:34.876Z,43.55
2019-06-07T06:47:04.995Z,42.71
2019-06-07T06:49:35.107Z,42.73
2019-06-07T06:52:05.203Z,42.71
2019-06-07T06:54:40.804Z,41.25
2019-06-07T06:57:19.212Z,40.98
2019-06-07T06:59:41.252Z,43.68
2019-06-07T07:02:11.291Z,42.26
2019-06-07T07:04:43.998Z,43.43
2019-06-07T07:07:14.568Z,43.10
2019-06-07T07:09:49.471Z,40.65
2019-06-07T07:12:16.584Z,41.53
2019-06-07T07:14:49.165Z,43.08
2019-06-07T07:17:18.484Z,43.77
2019-06-07T07:19:50.422Z,43.29
2019-06-07T07:22:20.439Z,43.61
2019-06-07T07:24:53.382Z,42.77
2019-06-07T07:27:24.091Z,43.74
2019-06-07T07:30:34.284Z,41.07
2019-06-07T07:32:26.023Z,42.35
2019-06-07T07:35:00.585Z,41.12
2019-06-07T07:37:27.998Z,41.58
2019-06-07T07:40:21.278Z,41.24
2019-06-07T07:42:30.149Z,42.22
2019-06-07T07:45:00.245Z,40.44
2019-06-07T07:47:30.372Z,39.87
2019-06-07T07:50:00.504Z,38.28
2019-06-07T07:52:30.598Z,39.54
2019-06-07T07:55:00.742Z,38.55
2019-06-07T07:57:30.915Z,39.64
2019-06-07T08:00:35.256Z,40.48
2019-06-07T08:02:32.854Z,37.91
2019-06-07T08:05:25.664Z,38.48
2019-06-07T08:07:35.448Z,36.77
2019-06-07T08:10:06.647Z,39.20
2019-06-07T08:12:55.584Z,35.67
2019-06-07T08:15:09.224Z,38.08
2019-06-07T08:17:39.377Z,36.74
2019-06-07T08:20:09.751Z,36.31
2019-06-07T08:22:39.922Z,37.04
2019-06-07T08:25:10.536Z,38.75
2019-06-07T08:27:40.662Z,35.88
2019-06-07T08:30:46.541Z,36.56
2019-06-07T08:32:43.611Z,36.41
2019-06-07T08:36:02.602Z,37.28
2019-06-07T08:40:18.985Z,37.54
2019-06-07T08:43:11.350Z,39.05
2019-06-07T08:45:21.848Z,35.37
2019-06-07T08:47:59.373Z,33.95
2019-06-07T08:50:25.336Z,35.29
2019-06-07T08:53:02.855Z,35.34
2019-06-07T08:55:30.277Z,34.48
2019-06-07T08:58:04.225Z,34.58
2019-06-07T09:00:48.156Z,36.88
2019-06-07T09:03:07.490Z,32.98
2019-06-07T09:05:37.254Z,34.72
2019-06-07T09:08:28.744Z,33.77
2019-06-07T09:10:39.200Z,32.50
2019-06-07T09:13:11.640Z,32.75
2019-06-07T09:15:41.163Z,33.13
2019-06-07T09:20:46.148Z,34.43
2019-06-07T09:23:17.810Z,35.73
2019-06-07T09:25:57.100Z,33.93
2019-06-07T09:28:21.842Z,33.41
2019-06-07T09:30:51.966Z,32.35
2019-06-07T09:33:22.093Z,34.36
2019-06-07T09:35:52.753Z,32.40
2019-06-07T09:38:26.038Z,33.68
2019-06-07T09:40:54.743Z,34.11
2019-06-07T09:44:00.701Z,31.20
2019-06-07T09:45:58.865Z,31.98
2019-06-07T09:51:06.181Z,31.62
2019-06-07T09:53:32.484Z,30.87
2019-06-07T09:56:06.914Z,33.67
2019-06-07T09:58:52.658Z,32.52
2019-06-07T10:01:12.391Z,34.43
2019-06-07T10:03:38.159Z,33.54
2019-06-07T10:06:13.201Z,30.79
2019-06-07T10:11:16.604Z,30.89
2019-06-07T10:13:46.838Z,28.50
2019-06-07T10:16:17.025Z,28.87
2019-06-07T10:18:47.154Z,28.48
2019-06-07T10:21:17.284Z,30.10
2019-06-07T10:23:47.572Z,31.32
2019-06-07T10:26:17.649Z,30.22
2019-06-07T10:28:47.771Z,31.20
2019-06-07T10:31:17.897Z,31.00
2019-06-07T10:33:48.000Z,31.90
2019-06-07T10:36:18.086Z,32.25
2019-06-07T10:38:48.157Z,31.04
2019-06-07T10:41:18.242Z,30.68
2019-06-07T10:43:48.586Z,31.69
2019-06-07T10:46:18.728Z,29.52
2019-06-07T10:48:48.777Z,32.00
2019-06-07T10:51:18.871Z,30.36
2019-06-07T10:53:48.973Z,30.85
2019-06-07T10:56:19.128Z,31.87
2019-06-07T10:58:49.259Z,28.24
2019-06-07T11:01:19.335Z,31.47
2019-06-07T11:03:49.436Z,29.08
2019-06-07T11:06:19.557Z,28.11
2019-06-07T11:08:50.958Z,31.07
2019-06-07T11:11:21.039Z,28.66
2019-06-07T11:13:52.566Z,29.09
2019-06-07T11:16:22.738Z,27.62
2019-06-07T11:18:52.844Z,28.13
2019-06-07T11:21:22.911Z,29.92
2019-06-07T11:23:52.977Z,29.47
2019-06-07T11:26:23.074Z,30.99
2019-06-07T11:28:53.157Z,30.84
2019-06-07T11:31:23.277Z,32.18
2019-06-07T11:33:53.387Z,32.40
2019-06-07T11:36:23.484Z,33.39
2019-06-07T11:38:53.574Z,31.41
2019-06-07T11:41:23.687Z,30.90
2019-06-07T11:43:53.778Z,30.99
2019-06-07T11:46:23.875Z,29.89
2019-06-07T11:48:54.109Z,30.72
2019-06-07T11:51:24.303Z,31.57
2019-06-07T11:53:54.368Z,30.70
2019-06-07T11:56:24.490Z,31.42
2019-06-07T11:58:54.578Z,31.87
2019-06-07T12:01:24.716Z,32.75
2019-06-07T12:03:58.238Z,31.47
2019-06-07T12:06:26.693Z,32.26
2019-06-07T12:08:56.783Z,31.38
2019-06-07T12:11:26.898Z,29.64
2019-06-07T12:13:57.046Z,30.58
2019-06-07T12:16:27.179Z,31.32
2019-06-07T12:18:57.266Z,31.98
2019-06-07T12:21:27.344Z,32.86
2019-06-07T12:23:57.455Z,30.26
2019-06-07T12:26:27.555Z,31.64
2019-06-07T12:28:57.722Z,32.32
2019-06-07T12:31:28.678Z,32.39
2019-06-07T12:33:58.773Z,31.39
2019-06-07T12:36:28.916Z,30.66
2019-06-07T12:38:58.988Z,30.48
2019-06-07T12:41:29.216Z,29.64
2019-06-07T12:43:59.398Z,31.57
2019-06-07T12:46:29.486Z,30.16
2019-06-07T12:48:59.618Z,31.24
2019-06-07T12:51:29.716Z,30.08
2019-06-07T12:53:59.827Z,31.04
2019-06-07T12:56:29.952Z,29.15
2019-06-07T12:59:00.054Z,30.05
2019-06-07T13:01:30.145Z,29.96
2019-06-07T13:04:00.320Z,31.86
2019-06-07T13:06:30.407Z,32.13
2019-06-07T13:09:00.567Z,31.91
2019-06-07T13:11:31.792Z,31.46
2019-06-07T13:14:02.148Z,33.12
2019-06-07T13:16:32.242Z,31.30
2019-06-07T13:19:02.317Z,33.13
2019-06-07T13:21:32.458Z,34.54
2019-06-07T13:24:02.549Z,32.57
2019-06-07T13:26:32.659Z,34.15
2019-06-07T13:29:03.567Z,32.79
2019-06-07T13:31:33.663Z,32.05
2019-06-07T13:34:03.798Z,33.23
2019-06-07T13:36:33.883Z,34.14
2019-06-07T13:39:05.160Z,33.65
2019-06-07T13:41:42.492Z,35.80
2019-06-07T13:44:07.105Z,30.67
2019-06-07T13:46:37.197Z,30.71
2019-06-07T13:49:07.304Z,30.29
2019-06-07T13:51:37.413Z,30.48
2019-06-07T13:54:07.500Z,32.37
2019-06-07T13:56:37.606Z,30.81
2019-06-07T13:59:07.731Z,29.93
2019-06-07T14:01:37.859Z,30.86
2019-06-07T14:04:08.016Z,29.83
2019-06-07T14:06:38.966Z,31.62
2019-06-07T14:09:09.204Z,30.72
2019-06-07T14:11:49.846Z,31.22
2019-06-07T14:14:11.134Z,29.13
2019-06-07T14:16:41.214Z,31.28
2019-06-07T14:19:11.315Z,30.22
2019-06-07T14:21:41.391Z,29.88
2019-06-07T14:24:11.529Z,27.62
2019-06-07T14:26:43.824Z,27.81
2019-06-07T14:29:13.923Z,29.33
2019-06-07T14:31:44.023Z,29.09
2019-06-07T14:34:14.122Z,26.80
2019-06-07T14:36:44.305Z,26.46
2019-06-07T14:39:17.344Z,27.57
2019-06-07T14:41:47.431Z,29.00
2019-06-07T14:44:17.503Z,27.41
2019-06-07T14:46:47.613Z,26.63
2019-06-07T14:49:17.686Z,26.78
2019-06-07T14:51:47.808Z,26.54
2019-06-07T14:54:17.941Z,26.85
2019-06-07T14:56:48.052Z,28.32
2019-06-07T14:59:18.156Z,26.91
2019-06-07T15:01:48.346Z,27.65
2019-06-07T15:04:18.411Z,27.55
2019-06-07T15:06:48.503Z,27.92
2019-06-07T15:09:18.584Z,27.10
2019-06-07T15:11:48.649Z,27.70
2019-06-07T15:14:18.757Z,27.74
2019-06-07T15:16:48.902Z,28.87
2019-06-07T15:19:19.022Z,30.06
2019-06-07T15:21:49.132Z,30.33
2019-06-07T15:24:19.214Z,28.54
2019-06-07T15:26:49.339Z,30.11
2019-06-07T15:29:19.437Z,29.41
2019-06-07T15:31:49.591Z,28.52
2019-06-07T15:34:19.643Z,28.88
2019-06-07T15:36:49.934Z,29.85
2019-06-07T15:39:19.980Z,30.37
2019-06-07T15:41:50.093Z,31.75
2019-06-07T15:44:20.234Z,31.60
2019-06-07T15:46:50.307Z,32.04
2019-06-07T15:49:20.399Z,31.72
2019-06-07T15:51:50.539Z,31.21
2019-06-07T15:54:20.632Z,30.68
2019-06-07T15:56:50.745Z,32.05
2019-06-07T15:59:20.828Z,32.52
2019-06-07T16:01:50.929Z,32.78
2019-06-07T16:04:21.050Z,32.23
2019-06-07T16:06:51.152Z,33.18
2019-06-07T16:09:21.220Z,34.58
2019-06-07T16:11:51.421Z,31.67
2019-06-07T16:14:21.517Z,32.60
2019-06-07T16:16:51.671Z,35.49
2019-06-07T16:19:21.769Z,33.31
2019-06-07T16:21:52.090Z,33.69
2019-06-07T16:24:23.060Z,34.39
2019-06-07T16:26:53.127Z,34.80
2019-06-07T16:29:23.232Z,35.17
2019-06-07T16:31:53.292Z,35.78
2019-06-07T16:34:23.424Z,36.44
2019-06-07T16:36:53.492Z,38.08
2019-06-07T16:39:23.578Z,38.08
2019-06-07T16:41:53.654Z,37.41
2019-06-07T16:44:23.793Z,37.46
2019-06-07T16:46:53.886Z,37.23
2019-06-07T16:49:24.025Z,37.59
2019-06-07T16:51:54.341Z,37.82
2019-06-07T16:54:24.417Z,37.98
2019-06-07T16:56:54.502Z,37.67
2019-06-07T16:59:24.649Z,38.34
2019-06-07T17:01:54.719Z,37.71
2019-06-07T17:04:24.827Z,37.35
2019-06-07T17:06:54.888Z,37.56
2019-06-07T17:09:24.982Z,38.40
2019-06-07T17:11:55.074Z,37.85
2019-06-07T17:14:25.186Z,37.80
2019-06-07T17:16:55.278Z,38.57
2019-06-07T17:19:25.376Z,39.39
2019-06-07T17:21:55.451Z,38.43
2019-06-07T17:24:26.833Z,39.12
2019-06-07T17:26:57.022Z,40.30
2019-06-07T17:29:27.101Z,38.82
2019-06-07T17:31:57.183Z,38.56
2019-06-07T17:34:27.341Z,39.69
2019-06-07T17:36:57.478Z,44.19
2019-06-07T17:39:27.581Z,47.86
2019-06-07T17:42:02.023Z,49.57
2019-06-07T17:44:29.640Z,49.94
2019-06-07T17:46:59.730Z,50.76
2019-06-07T17:49:29.878Z,51.22
2019-06-07T17:51:59.990Z,51.75
2019-06-07T17:54:30.147Z,51.76
2019-06-07T17:57:00.319Z,51.67
2019-06-07T17:59:30.469Z,52.87
2019-06-07T18:02:14.440Z,53.43
2019-06-07T18:04:32.410Z,54.29
2019-06-07T18:07:02.660Z,54.55
2019-06-07T18:09:34.516Z,55.16
2019-06-07T18:12:05.279Z,56.21
2019-06-07T18:14:35.388Z,56.37
2019-06-07T18:17:05.523Z,56.65
2019-06-07T18:19:35.610Z,57.29
2019-06-07T18:22:05.731Z,57.67
2019-06-07T18:24:35.812Z,58.14
2019-06-07T18:27:07.189Z,58.42
2019-06-07T18:29:37.428Z,59.24
2019-06-07T18:32:07.527Z,58.98
2019-06-07T18:34:37.652Z,59.07
2019-06-07T18:37:07.796Z,59.33
2019-06-07T18:39:37.917Z,59.77
2019-06-07T18:42:08.546Z,59.81
2019-06-07T18:44:38.668Z,60.46
2019-06-07T18:47:08.814Z,60.36
2019-06-07T18:49:38.951Z,61.18
2019-06-07T18:52:15.406Z,61.38
2019-06-07T18:54:46.699Z,61.39
2019-06-07T18:57:16.972Z,61.88
2019-06-07T18:59:48.246Z,61.88
2019-06-07T19:02:18.488Z,62.00
2019-06-07T19:04:50.450Z,62.20
2019-06-07T19:07:20.394Z,62.60
2019-06-07T19:09:50.632Z,62.75
2019-06-07T19:12:22.845Z,63.33
2019-06-07T19:14:53.274Z,63.88
2019-06-07T19:17:23.530Z,63.84
2019-06-07T19:19:54.172Z,64.36
2019-06-07T19:22:24.309Z,64.87
2019-06-07T19:24:54.410Z,65.14
2019-06-07T19:27:24.546Z,65.48
2019-06-07T19:29:57.458Z,65.33
2019-06-07T19:32:27.565Z,65.39
2019-06-07T19:34:57.702Z,66.24
2019-06-07T19:37:27.818Z,66.52
2019-06-07T19:39:58.050Z,66.89
2019-06-07T19:42:28.171Z,67.13
2019-06-07T19:45:16.969Z,67.39
2019-06-07T19:47:30.244Z,67.63
2019-06-07T19:50:00.931Z,67.22
2019-06-07T19:52:31.171Z,68.11
2019-06-07T19:55:05.766Z,68.06
2019-06-07T19:57:33.230Z,68.20
2019-06-07T20:00:13.156Z,69.21
2019-06-07T20:02:35.383Z,69.13
2019-06-07T20:05:06.949Z,69.24
2019-06-07T20:07:37.107Z,69.10
2019-06-07T20:10:07.253Z,69.98
2019-06-07T20:12:37.390Z,69.98
2019-06-07T20:15:27.297Z,70.11
2019-06-07T20:17:39.629Z,70.30
2019-06-07T20:20:11.585Z,70.71
2019-06-07T20:22:41.796Z,70.54
2019-06-07T20:25:13.297Z,71.14
2019-06-07T20:27:43.447Z,71.65
2019-06-07T20:30:15.006Z,71.57
2019-06-07T20:32:45.120Z,71.21
2019-06-07T20:35:15.566Z,71.45
2019-06-07T20:37:45.681Z,71.74
2019-06-07T20:40:24.210Z,71.86
2019-06-07T20:42:49.862Z,71.98
2019-06-07T20:45:32.529Z,71.76
2019-06-07T20:47:52.174Z,72.17
2019-06-07T20:50:22.319Z,72.19
2019-06-07T20:52:52.417Z,71.87
2019-06-07T20:55:22.534Z,72.10
2019-06-07T20:57:52.670Z,72.64
2019-06-07T21:00:22.772Z,73.01
2019-06-07T21:02:52.844Z,75.40
2019-06-07T21:05:22.946Z,74.90
2019-06-07T21:07:53.065Z,75.24
2019-06-07T21:10:23.295Z,76.78
2019-06-07T21:12:53.395Z,77.39
2019-06-07T21:15:23.505Z,77.03
2019-06-07T21:17:53.635Z,78.06
2019-06-07T21:20:24.070Z,77.82
2019-06-07T21:22:54.242Z,77.84
2019-06-07T21:25:24.364Z,78.46
2019-06-07T21:27:54.451Z,81.39
2019-06-07T21:30:24.565Z,86.07
2019-06-07T21:32:55.445Z,84.60
2019-06-07T21:35:25.554Z,88.37
2019-06-07T21:37:55.661Z,88.67
2019-06-07T21:40:25.777Z,88.33
2019-06-07T21:42:55.879Z,89.78
2019-06-07T21:45:26.056Z,88.83
2019-06-07T21:47:56.181Z,88.93
2019-06-07T21:50:26.313Z,89.63
2019-06-07T21:52:56.429Z,89.98
2019-06-07T21:55:26.519Z,90.28
2019-06-07T21:57:56.786Z,91.46
2019-06-07T22:01:08.460Z,91.05
2019-06-07T22:03:39.338Z,92.84
2019-06-07T22:06:09.738Z,91.69
2019-06-07T22:08:39.928Z,91.40
2019-06-07T22:11:10.276Z,92.48
2019-06-07T22:13:40.457Z,92.57
2019-06-07T22:16:23.381Z,93.12
2019-06-07T22:18:42.595Z,94.03
2019-06-07T22:21:12.788Z,94.29
2019-06-07T22:23:43.818Z,94.92
2019-06-07T22:26:15.498Z,95.15
2019-06-07T22:28:45.831Z,95.31
2019-06-07T22:31:15.943Z,96.04
2019-06-07T22:33:46.031Z,95.64
2019-06-07T22:36:16.173Z,95.99
2019-06-07T22:38:46.252Z,96.46
2019-06-07T22:41:17.583Z,96.47
2019-06-07T22:43:47.872Z,96.12
2019-06-07T22:46:19.226Z,96.95
2019-06-07T22:48:49.414Z,97.12
2019-06-07T22:51:19.508Z,96.86
2019-06-07T22:53:49.620Z,96.55
2019-06-07T22:56:33.914Z,96.30
2019-06-07T22:59:04.037Z,96.47
2019-06-07T23:01:34.155Z,96.69
2019-06-07T23:04:04.385Z,96.96
2019-06-07T23:06:34.479Z,97.12
2019-06-07T23:09:05.555Z,97.41
2019-06-07T23:11:35.656Z,97.43
2019-06-07T23:14:05.769Z,97.63
2019-06-07T23:16:35.856Z,97.61
2019-06-07T23:19:06.469Z,97.61
2019-06-07T23:21:36.545Z,97.39
2019-06-07T23:24:06.633Z,97.69
2019-06-07T23:26:36.716Z,97.19
2019-06-07T23:29:06.821Z,96.18
2019-06-07T23:31:36.909Z,96.09
2019-06-07T23:34:06.992Z,96.42
2019-06-07T23:36:37.096Z,96.64
2019-06-07T23:39:08.500Z,97.36
2019-06-07T23:41:38.558Z,97.31
2019-06-07T23:44:08.669Z,97.85
2019-06-07T23:46:38.740Z,97.82
2019-06-07T23:49:11.893Z,97.82
2019-06-07T23:51:42.152Z,98.01
2019-06-07T23:54:12.244Z,98.19
2019-06-07T23:56:43.387Z,98.33
2019-06-07T23:59:14.215Z,98.43
